Terminal Aerodrome Forecast
Issued by NWS

Current Version | Previous Version | Graphics & Text | Print | Product List | Glossary On
Versions: 1 2 3 4 5 6 7 8 9 10 11 12 13 14 15 16 17 18 19 20 21 22 23 24 25
000
FTUS41 KPBZ 261600 AAC
TAFHLG
TAF AMD
KHLG 261657Z 2617/2712 33010KT 3/4SM -SN BR OVC015
      TEMPO 2617/2619 1/2SM SN FZFG OVC007
     FM262000 35008KT 3SM -SHSN OVC015
     FM270300 32006KT P6SM -SHSN OVC015=

USA.gov is the U.S. government's official web portal to all federal, state and local government web resources and services.